Time;durP1;ratioP1;P1;durP2;ratioP2;P2;SDS_P1;SDS_P2;PMS_P1;PMS_P2;Temp;Humidity;BMP_temperature;BMP_pressure;BME280_temperature;BME280_humidity;BME280_pressure;Samples;Min_cycle;Max_cycle;Signal;HPM_P1;HPM_P2
2022/10/16 00:01:22;;;;;;;16.92;12.93;;;;;;;;;;4992167;28;20032;-77
2022/10/16 00:03:48;;;;;;;14.95;11.60;;;;;;;;;;5004402;28;20030;-81
2022/10/16 00:06:15;;;;;;;15.73;12.82;;;;;;;;;;4992916;28;20040;-77
2022/10/16 00:08:41;;;;;;;15.63;11.88;;;;;;;;;;5005750;28;20026;-78
2022/10/16 00:11:09;;;;;;;15.45;11.40;;;;;;;;;;4975079;28;20030;-77
2022/10/16 00:13:37;;;;;;;17.33;11.82;;;;;;;;;;4992323;28;20440;-76
2022/10/16 00:16:03;;;;;;;15.32;11.40;;;;;;;;;;5004863;28;20519;-78
2022/10/16 00:18:29;;;;;;;14.25;10.63;;;;;;;;;;4993426;28;20439;-76
2022/10/16 00:20:56;;;;;;;15.55;10.73;;;;;;;;;;4992380;28;20149;-76
2022/10/16 00:23:22;;;;;;;15.52;11.07;;;;;;;;;;5005780;28;20027;-76
2022/10/16 00:25:56;;;;;;;14.35;10.95;;;;;;;;;;5002597;28;20033;-76
2022/10/16 00:28:22;;;;;;;14.95;12.25;;;;;;;;;;5007666;28;20121;-76
2022/10/16 00:30:48;;;;;;;14.98;11.50;;;;;;;;;;4992831;28;20054;-76
2022/10/16 00:33:14;;;;;;;16.55;12.82;;;;;;;;;;4995940;28;20416;-76
2022/10/16 00:35:39;;;;;;;16.50;12.52;;;;;;;;;;5003673;28;20023;-77
2022/10/16 00:38:05;;;;;;;17.98;13.88;;;;;;;;;;4992969;28;20029;-77
2022/10/16 00:40:31;;;;;;;19.30;14.45;;;;;;;;;;4992411;28;20380;-77
2022/10/16 00:42:57;;;;;;;19.55;14.20;;;;;;;;;;5005458;28;20093;-79
2022/10/16 00:45:24;;;;;;;20.20;14.63;;;;;;;;;;4998924;28;20075;-79
2022/10/16 00:47:52;;;;;;;22.85;13.98;;;;;;;;;;4998961;28;20049;-78
2022/10/16 00:50:34;;;;;;;17.08;13.48;;;;;;;;;;4992405;28;20038;-77
2022/10/16 00:53:02;;;;;;;14.65;12.18;;;;;;;;;;4992177;28;20048;-76
2022/10/16 00:55:30;;;;;;;17.98;13.70;;;;;;;;;;4999547;28;20018;-76
2022/10/16 00:57:56;;;;;;;19.75;14.73;;;;;;;;;;4997777;28;20392;-76
2022/10/16 01:00:23;;;;;;;18.58;14.07;;;;;;;;;;4992487;28;20026;-77
2022/10/16 01:02:53;;;;;;;16.30;13.60;;;;;;;;;;4995983;28;20027;-76
2022/10/16 01:05:20;;;;;;;18.38;13.73;;;;;;;;;;5007878;28;20014;-76
2022/10/16 01:08:01;;;;;;;20.00;14.68;;;;;;;;;;4995466;28;20027;-76
2022/10/16 01:10:39;;;;;;;21.58;15.70;;;;;;;;;;4982455;28;20029;-77
2022/10/16 01:13:14;;;;;;;20.02;14.27;;;;;;;;;;4995413;28;20026;-76
2022/10/16 01:15:48;;;;;;;20.23;14.40;;;;;;;;;;4995795;28;20029;-78
2022/10/16 01:18:17;;;;;;;17.08;14.38;;;;;;;;;;5011545;28;20512;-77
2022/10/16 01:21:03;;;;;;;18.27;14.63;;;;;;;;;;5015361;28;20341;-78
2022/10/16 01:23:38;;;;;;;19.48;15.32;;;;;;;;;;5012880;28;20081;-78
2022/10/16 01:26:13;;;;;;;20.67;16.42;;;;;;;;;;4996114;28;20084;-78
2022/10/16 01:28:45;;;;;;;23.15;17.10;;;;;;;;;;5015013;28;20366;-78
2022/10/16 01:31:11;;;;;;;19.33;16.48;;;;;;;;;;5001873;28;20081;-77
2022/10/16 01:33:42;;;;;;;20.42;16.15;;;;;;;;;;4995080;28;20026;-77
2022/10/16 01:36:12;;;;;;;16.52;14.50;;;;;;;;;;5008407;28;20026;-77
2022/10/16 01:38:39;;;;;;;16.83;13.98;;;;;;;;;;5015161;28;20033;-78
2022/10/16 01:41:12;;;;;;;19.20;13.95;;;;;;;;;;5013991;28;20029;-79
2022/10/16 01:43:49;;;;;;;14.80;13.27;;;;;;;;;;4995957;28;20112;-81
2022/10/16 01:46:17;;;;;;;14.13;12.63;;;;;;;;;;5009712;28;20078;-79
2022/10/16 01:48:43;;;;;;;14.05;12.07;;;;;;;;;;4996030;28;20080;-78
2022/10/16 01:51:11;;;;;;;13.70;11.93;;;;;;;;;;4996683;28;20038;-79
2022/10/16 01:53:37;;;;;;;12.85;11.32;;;;;;;;;;5001950;28;20038;-80
2022/10/16 01:56:05;;;;;;;13.00;10.68;;;;;;;;;;5003082;28;20030;-78
2022/10/16 01:58:34;;;;;;;12.43;11.13;;;;;;;;;;4982877;28;20032;-78
2022/10/16 02:01:01;;;;;;;13.55;11.15;;;;;;;;;;5002909;28;20022;-78
2022/10/16 02:03:27;;;;;;;12.80;10.70;;;;;;;;;;5008283;28;20030;-78
2022/10/16 02:05:55;;;;;;;12.48;10.52;;;;;;;;;;4995325;28;20022;-78
2022/10/16 02:08:23;;;;;;;16.52;11.45;;;;;;;;;;4995550;28;20018;-78
2022/10/16 02:10:49;;;;;;;13.63;10.15;;;;;;;;;;4995746;28;20476;-79
2022/10/16 02:13:24;;;;;;;14.93;10.43;;;;;;;;;;5006809;28;20505;-79
2022/10/16 02:15:50;;;;;;;13.77;10.32;;;;;;;;;;4994892;28;20054;-77
2022/10/16 02:18:16;;;;;;;14.77;11.07;;;;;;;;;;5011065;28;20384;-77
2022/10/16 02:20:54;;;;;;;12.98;9.73;;;;;;;;;;5005070;28;20033;-77
2022/10/16 02:23:24;;;;;;;12.10;10.20;;;;;;;;;;4994451;28;20025;-77
2022/10/16 02:25:52;;;;;;;12.38;11.07;;;;;;;;;;5005142;28;20032;-78
2022/10/16 02:28:20;;;;;;;13.68;10.25;;;;;;;;;;4997332;28;20022;-78
2022/10/16 02:30:51;;;;;;;13.93;8.73;;;;;;;;;;4994518;28;20018;-78
2022/10/16 02:33:17;;;;;;;11.73;9.10;;;;;;;;;;5007648;28;20026;-78
2022/10/16 02:35:45;;;;;;;10.27;8.40;;;;;;;;;;4994927;28;20030;-78
2022/10/16 02:38:11;;;;;;;9.70;8.68;;;;;;;;;;4976623;28;20556;-78
2022/10/16 02:40:37;;;;;;;7.60;6.85;;;;;;;;;;4994609;28;20113;-78
2022/10/16 02:43:04;;;;;;;8.85;7.28;;;;;;;;;;4995461;28;20106;-77
2022/10/16 02:45:30;;;;;;;9.05;6.45;;;;;;;;;;5006334;28;20633;-78
2022/10/16 02:47:56;;;;;;;7.55;5.40;;;;;;;;;;4994422;28;20389;-78
2022/10/16 02:50:22;;;;;;;9.18;5.53;;;;;;;;;;5012884;28;20021;-78
2022/10/16 02:52:48;;;;;;;7.47;5.55;;;;;;;;;;5018427;28;20092;-80
2022/10/16 02:55:14;;;;;;;5.57;5.00;;;;;;;;;;5002569;28;20034;-79
2022/10/16 02:57:40;;;;;;;5.55;5.05;;;;;;;;;;4996981;28;20029;-78
2022/10/16 03:00:07;;;;;;;6.43;5.70;;;;;;;;;;5007357;28;20018;-77
2022/10/16 03:02:33;;;;;;;6.78;5.30;;;;;;;;;;5004827;28;20033;-77
2022/10/16 03:04:59;;;;;;;8.65;6.70;;;;;;;;;;5009877;28;20018;-78
2022/10/16 03:07:25;;;;;;;13.98;6.72;;;;;;;;;;4993045;28;20241;-78
2022/10/16 03:09:52;;;;;;;8.02;6.15;;;;;;;;;;4993258;28;20057;-78
2022/10/16 03:12:18;;;;;;;10.80;6.28;;;;;;;;;;4993713;28;20022;-78
2022/10/16 03:14:44;;;;;;;9.93;7.00;;;;;;;;;;4993376;28;20038;-78
2022/10/16 03:17:10;;;;;;;8.15;7.30;;;;;;;;;;5001093;28;20025;-77
2022/10/16 03:19:36;;;;;;;7.68;6.88;;;;;;;;;;4997531;28;20420;-77
2022/10/16 03:22:02;;;;;;;9.00;7.28;;;;;;;;;;4993421;28;20029;-79
2022/10/16 03:24:28;;;;;;;10.20;8.35;;;;;;;;;;5005986;28;20018;-76
2022/10/16 03:26:54;;;;;;;9.43;7.10;;;;;;;;;;5009827;28;20084;-78
2022/10/16 03:29:20;;;;;;;7.22;6.40;;;;;;;;;;5004104;28;20053;-79
2022/10/16 03:31:48;;;;;;;8.90;6.88;;;;;;;;;;5006944;28;20018;-77
2022/10/16 03:34:14;;;;;;;7.53;6.32;;;;;;;;;;5006973;28;20045;-77
2022/10/16 03:36:40;;;;;;;7.55;6.18;;;;;;;;;;4993685;28;20014;-78
2022/10/16 03:39:06;;;;;;;6.93;6.05;;;;;;;;;;5003261;28;20151;-78
2022/10/16 03:41:32;;;;;;;9.13;6.93;;;;;;;;;;4996960;28;20037;-79
2022/10/16 03:43:58;;;;;;;8.27;7.38;;;;;;;;;;5002647;28;20026;-78
2022/10/16 03:46:24;;;;;;;8.73;7.35;;;;;;;;;;4999451;28;20033;-78
2022/10/16 03:48:50;;;;;;;10.60;7.90;;;;;;;;;;5005898;28;20024;-79
2022/10/16 03:51:16;;;;;;;9.82;8.77;;;;;;;;;;4994294;28;20026;-78
2022/10/16 03:53:42;;;;;;;9.98;8.80;;;;;;;;;;5008683;28;20493;-78
2022/10/16 03:56:08;;;;;;;12.93;10.48;;;;;;;;;;4992071;28;20038;-79
2022/10/16 03:58:34;;;;;;;13.55;10.77;;;;;;;;;;5018574;28;20233;-83
2022/10/16 04:01:00;;;;;;;13.25;10.48;;;;;;;;;;5024931;28;20102;-80
2022/10/16 04:03:26;;;;;;;11.57;10.38;;;;;;;;;;5016937;28;20085;-81
2022/10/16 04:05:52;;;;;;;12.40;10.98;;;;;;;;;;5016890;28;20164;-79
2022/10/16 04:08:18;;;;;;;11.98;10.70;;;;;;;;;;5013876;28;20030;-77
2022/10/16 04:10:44;;;;;;;12.73;11.27;;;;;;;;;;4985772;28;20029;-77
2022/10/16 04:13:10;;;;;;;12.93;11.63;;;;;;;;;;4996550;28;20030;-78
2022/10/16 04:15:36;;;;;;;13.48;11.60;;;;;;;;;;4993300;28;20058;-77
2022/10/16 04:18:02;;;;;;;13.05;11.05;;;;;;;;;;5007311;28;20058;-78
2022/10/16 04:20:28;;;;;;;13.95;12.18;;;;;;;;;;5004965;28;20081;-77
2022/10/16 04:22:54;;;;;;;16.20;12.50;;;;;;;;;;5005954;28;20132;-80
2022/10/16 04:25:20;;;;;;;14.52;12.50;;;;;;;;;;4999182;28;20365;-77
2022/10/16 04:27:46;;;;;;;15.98;12.77;;;;;;;;;;4999754;28;20031;-77
2022/10/16 04:30:12;;;;;;;13.38;11.32;;;;;;;;;;4995911;28;20021;-77
2022/10/16 04:32:38;;;;;;;18.45;12.05;;;;;;;;;;4992642;28;20515;-77
2022/10/16 04:35:04;;;;;;;13.98;11.57;;;;;;;;;;4996238;28;20026;-77
2022/10/16 04:37:30;;;;;;;16.45;12.75;;;;;;;;;;5005368;28;20037;-77
2022/10/16 04:39:55;;;;;;;14.98;12.02;;;;;;;;;;5009650;28;20018;-77
2022/10/16 04:42:21;;;;;;;12.80;11.07;;;;;;;;;;4978765;28;20408;-76
2022/10/16 04:44:47;;;;;;;13.27;10.65;;;;;;;;;;5009749;28;20026;-77
2022/10/16 04:47:14;;;;;;;13.52;11.25;;;;;;;;;;5004796;28;20014;-77
2022/10/16 04:49:40;;;;;;;13.23;11.68;;;;;;;;;;5014957;28;20029;-76
2022/10/16 04:52:06;;;;;;;13.43;11.25;;;;;;;;;;5003245;28;20391;-76
2022/10/16 04:54:32;;;;;;;13.82;10.70;;;;;;;;;;5003763;28;20117;-76
2022/10/16 04:56:58;;;;;;;13.15;11.52;;;;;;;;;;5002411;28;20021;-74
2022/10/16 04:59:24;;;;;;;12.15;10.85;;;;;;;;;;5001917;28;20038;-76
2022/10/16 05:01:50;;;;;;;13.48;10.52;;;;;;;;;;4995810;28;20022;-77
2022/10/16 05:04:16;;;;;;;15.13;11.57;;;;;;;;;;4978343;28;20015;-77
2022/10/16 05:06:42;;;;;;;15.25;12.45;;;;;;;;;;4996032;28;20018;-77
2022/10/16 05:09:09;;;;;;;14.45;11.57;;;;;;;;;;4995884;28;20384;-77
2022/10/16 05:11:35;;;;;;;12.75;11.45;;;;;;;;;;4995577;28;20030;-77
2022/10/16 05:14:01;;;;;;;13.32;11.68;;;;;;;;;;4995576;28;20440;-77
2022/10/16 05:16:27;;;;;;;14.20;11.80;;;;;;;;;;4997671;28;20026;-76
2022/10/16 05:18:53;;;;;;;12.23;10.93;;;;;;;;;;5015368;28;20396;-78
2022/10/16 05:21:19;;;;;;;13.13;11.77;;;;;;;;;;5001618;28;20473;-78
2022/10/16 05:23:45;;;;;;;12.63;10.98;;;;;;;;;;5008320;28;20480;-77
2022/10/16 05:26:11;;;;;;;11.75;10.25;;;;;;;;;;4995825;28;20041;-78
2022/10/16 05:28:37;;;;;;;10.65;9.65;;;;;;;;;;4997798;28;20022;-78
2022/10/16 05:31:06;;;;;;;9.55;8.52;;;;;;;;;;5015626;28;20026;-77
2022/10/16 05:33:32;;;;;;;10.50;8.95;;;;;;;;;;4996574;28;20042;-78
2022/10/16 05:36:01;;;;;;;9.88;8.88;;;;;;;;;;4978529;28;20023;-78
2022/10/16 05:38:27;;;;;;;13.65;8.57;;;;;;;;;;4999733;28;20018;-78
2022/10/16 05:40:53;;;;;;;11.23;9.40;;;;;;;;;;5003920;28;20026;-78
2022/10/16 05:43:20;;;;;;;11.90;9.25;;;;;;;;;;4995027;28;20072;-78
2022/10/16 05:45:54;;;;;;;9.90;8.80;;;;;;;;;;4995645;28;20072;-77
2022/10/16 05:48:19;;;;;;;12.27;9.32;;;;;;;;;;4994931;28;20487;-76
2022/10/16 05:50:45;;;;;;;10.23;8.55;;;;;;;;;;4995246;28;20022;-76
2022/10/16 05:53:11;;;;;;;9.65;8.52;;;;;;;;;;4994859;28;20500;-79
2022/10/16 05:55:37;;;;;;;8.75;7.88;;;;;;;;;;4994860;28;20040;-80
2022/10/16 05:58:03;;;;;;;8.70;7.80;;;;;;;;;;4977276;28;20034;-77
2022/10/16 06:00:29;;;;;;;8.60;7.70;;;;;;;;;;4995510;28;20031;-78
2022/10/16 06:02:55;;;;;;;10.23;7.53;;;;;;;;;;5007810;28;20101;-77
2022/10/16 06:05:21;;;;;;;8.75;6.70;;;;;;;;;;5001328;28;20438;-78
2022/10/16 06:07:47;;;;;;;9.27;6.53;;;;;;;;;;5000577;28;20022;-77
2022/10/16 06:10:14;;;;;;;6.63;5.90;;;;;;;;;;5008328;28;20026;-77
2022/10/16 06:12:40;;;;;;;7.00;5.65;;;;;;;;;;4994869;28;20026;-78
2022/10/16 06:15:06;;;;;;;7.90;5.97;;;;;;;;;;4994599;28;20026;-77
2022/10/16 06:17:32;;;;;;;6.95;6.00;;;;;;;;;;5005034;28;20026;-78
2022/10/16 06:19:58;;;;;;;7.22;5.72;;;;;;;;;;4997638;28;20165;-75
2022/10/16 06:22:24;;;;;;;5.32;4.82;;;;;;;;;;4994105;28;20030;-78
2022/10/16 06:24:50;;;;;;;5.70;4.50;;;;;;;;;;4994004;28;20031;-77
2022/10/16 06:27:16;;;;;;;5.55;4.88;;;;;;;;;;4994423;28;20022;-78
2022/10/16 06:29:42;;;;;;;4.72;4.32;;;;;;;;;;4994404;28;20037;-78
2022/10/16 06:32:09;;;;;;;5.93;4.57;;;;;;;;;;4994438;28;20034;-78
2022/10/16 06:34:35;;;;;;;4.75;4.25;;;;;;;;;;5007986;28;20049;-78
2022/10/16 06:37:01;;;;;;;5.22;4.22;;;;;;;;;;4994552;28;20030;-80
2022/10/16 06:39:27;;;;;;;7.00;4.95;;;;;;;;;;4994549;28;20102;-79
2022/10/16 06:41:53;;;;;;;6.30;5.32;;;;;;;;;;5008321;28;20454;-79
2022/10/16 06:44:19;;;;;;;9.57;6.18;;;;;;;;;;4977386;28;20037;-78
2022/10/16 06:46:45;;;;;;;7.05;5.78;;;;;;;;;;5008009;28;20023;-78
2022/10/16 06:49:11;;;;;;;7.22;5.65;;;;;;;;;;5004918;28;20025;-78
2022/10/16 06:51:40;;;;;;;6.45;5.85;;;;;;;;;;4996971;28;20022;-78
2022/10/16 06:54:07;;;;;;;6.07;5.47;;;;;;;;;;4993859;28;20066;-78
2022/10/16 06:56:33;;;;;;;7.15;6.45;;;;;;;;;;5007681;28;20514;-78
2022/10/16 06:58:59;;;;;;;6.25;5.65;;;;;;;;;;4993462;28;20473;-78
2022/10/16 07:01:26;;;;;;;8.73;6.35;;;;;;;;;;4994020;28;20400;-78
2022/10/16 07:03:52;;;;;;;6.43;5.68;;;;;;;;;;4994521;28;20027;-78
2022/10/16 07:06:19;;;;;;;6.70;6.00;;;;;;;;;;4994488;28;20428;-78
2022/10/16 07:08:46;;;;;;;8.60;5.90;;;;;;;;;;5006212;28;20529;-77
2022/10/16 07:11:19;;;;;;;6.13;5.53;;;;;;;;;;4993938;28;20026;-77
2022/10/16 07:13:46;;;;;;;6.00;5.40;;;;;;;;;;5001306;28;20033;-78
2022/10/16 07:16:17;;;;;;;6.32;5.72;;;;;;;;;;4997619;28;20069;-78
2022/10/16 07:18:45;;;;;;;6.22;5.28;;;;;;;;;;4980904;28;20025;-80
2022/10/16 07:21:13;;;;;;;5.30;4.80;;;;;;;;;;5007953;28;20022;-81
2022/10/16 07:23:39;;;;;;;5.55;4.95;;;;;;;;;;4996157;28;20038;-78
2022/10/16 07:26:05;;;;;;;7.78;6.03;;;;;;;;;;4995601;28;20396;-79
2022/10/16 07:28:32;;;;;;;6.63;6.00;;;;;;;;;;5010737;28;20027;-77
2022/10/16 07:31:10;;;;;;;6.78;6.07;;;;;;;;;;5004180;28;20023;-78
2022/10/16 07:33:36;;;;;;;10.40;6.53;;;;;;;;;;5011473;28;20030;-79
2022/10/16 07:36:02;;;;;;;7.35;6.65;;;;;;;;;;4996584;28;20188;-80
2022/10/16 07:38:28;;;;;;;7.03;6.30;;;;;;;;;;4979143;28;20487;-80
2022/10/16 07:40:58;;;;;;;7.10;6.40;;;;;;;;;;5006558;28;20022;-79
2022/10/16 07:43:24;;;;;;;7.22;6.32;;;;;;;;;;4996344;28;20026;-78
2022/10/16 07:45:50;;;;;;;7.82;6.30;;;;;;;;;;4999365;28;20392;-82
2022/10/16 07:48:17;;;;;;;7.78;6.65;;;;;;;;;;5004023;28;20109;-80
2022/10/16 07:50:43;;;;;;;7.03;6.38;;;;;;;;;;5001211;28;20022;-81
2022/10/16 07:53:09;;;;;;;7.85;7.05;;;;;;;;;;5012350;28;20563;-79
2022/10/16 07:55:36;;;;;;;8.43;7.57;;;;;;;;;;5004243;28;20071;-79
2022/10/16 07:58:01;;;;;;;7.22;6.63;;;;;;;;;;5006412;28;20064;-80
2022/10/16 08:00:27;;;;;;;7.82;6.30;;;;;;;;;;5000730;28;20030;-79
2022/10/16 08:02:53;;;;;;;8.68;7.15;;;;;;;;;;5007391;28;20057;-80
2022/10/16 08:05:20;;;;;;;7.55;6.85;;;;;;;;;;5007681;28;20022;-81
2022/10/16 08:07:49;;;;;;;7.75;5.60;;;;;;;;;;5026233;28;20030;-82
2022/10/16 08:10:36;;;;;;;10.15;6.75;;;;;;;;;;5027875;28;20102;-82
2022/10/16 08:13:15;;;;;;;;;;;;;;;;;;;;;
2022/10/16 08:15:53;;;;;;;8.75;7.82;;;;;;;;;;5012164;28;20078;-81
2022/10/16 08:21:30;;;;;;;13.70;10.90;;;;;;;;;;4994937;28;20023;-82
2022/10/16 08:29:52;;;;;;;38.78;23.33;;;;;;;;;;4921769;29;20028;-79
2022/10/16 08:38:06;;;;;;;29.65;19.30;;;;;;;;;;5045843;28;20025;-81
2022/10/16 08:40:33;;;;;;;32.58;19.25;;;;;;;;;;5049861;28;20105;-79
2022/10/16 08:43:05;;;;;;;15.38;10.63;;;;;;;;;;5029408;28;20042;-80
2022/10/16 08:45:50;;;;;;;20.02;14.38;;;;;;;;;;5022548;28;20026;-80
2022/10/16 08:48:23;;;;;;;30.65;18.90;;;;;;;;;;5022249;28;20072;-79
2022/10/16 08:50:50;;;;;;;35.20;20.08;;;;;;;;;;5015518;28;20022;-77
2022/10/16 08:53:22;;;;;;;39.05;22.73;;;;;;;;;;5017014;28;20448;-82
2022/10/16 08:55:52;;;;;;;22.52;13.88;;;;;;;;;;5020735;28;20301;-80
2022/10/16 08:58:19;;;;;;;19.25;13.18;;;;;;;;;;5016471;28;20542;-78
2022/10/16 09:00:47;;;;;;;14.38;9.63;;;;;;;;;;5011113;28;20097;-78
2022/10/16 09:03:26;;;;;;;9.20;8.20;;;;;;;;;;5011078;28;20080;-78
2022/10/16 09:06:06;;;;;;;11.38;9.10;;;;;;;;;;5011563;28;20480;-77
2022/10/16 09:08:42;;;;;;;8.75;7.90;;;;;;;;;;5009718;28;20033;-77
2022/10/16 09:11:21;;;;;;;11.50;7.95;;;;;;;;;;5018136;28;20022;-79
2022/10/16 09:13:54;;;;;;;15.95;10.63;;;;;;;;;;4999249;28;20018;-78
2022/10/16 09:16:21;;;;;;;8.80;7.90;;;;;;;;;;5012568;28;20021;-77
2022/10/16 09:19:02;;;;;;;11.57;9.95;;;;;;;;;;5011469;28;20022;-81
2022/10/16 09:21:33;;;;;;;12.05;9.57;;;;;;;;;;5009791;28;20065;-78
2022/10/16 09:24:03;;;;;;;10.00;8.93;;;;;;;;;;5018431;28;20022;-79
2022/10/16 09:26:29;;;;;;;9.43;8.43;;;;;;;;;;5014939;28;20623;-78
2022/10/16 09:28:55;;;;;;;4.55;4.15;;;;;;;;;;5017180;28;20507;-80
2022/10/16 09:31:22;;;;;;;4.18;3.78;;;;;;;;;;5016491;28;20041;-77
2022/10/16 09:33:54;;;;;;;3.70;3.40;;;;;;;;;;5002796;28;20076;-75
2022/10/16 09:36:28;;;;;;;3.08;2.42;;;;;;;;;;5016925;28;20049;-79
2022/10/16 09:39:05;;;;;;;1.67;1.58;;;;;;;;;;5022307;28;20061;-81
2022/10/16 09:41:31;;;;;;;3.53;1.10;;;;;;;;;;5016690;28;20061;-76
2022/10/16 09:43:58;;;;;;;1.85;0.98;;;;;;;;;;5014307;28;20033;-75
2022/10/16 09:46:27;;;;;;;1.58;1.05;;;;;;;;;;5014326;28;20026;-76
2022/10/16 09:48:58;;;;;;;1.30;1.10;;;;;;;;;;5014014;28;20030;-75
2022/10/16 09:51:26;;;;;;;3.65;1.58;;;;;;;;;;5015955;28;20029;-80
2022/10/16 09:54:00;;;;;;;0.55;0.50;;;;;;;;;;5020446;28;20117;-80
2022/10/16 09:56:26;;;;;;;1.33;0.80;;;;;;;;;;5022807;28;20025;-79
2022/10/16 09:58:53;;;;;;;2.42;1.63;;;;;;;;;;5020114;28;20064;-80
2022/10/16 10:01:20;;;;;;;4.72;0.82;;;;;;;;;;5021606;28;20073;-81
2022/10/16 10:03:47;;;;;;;3.00;1.85;;;;;;;;;;5019883;28;20026;-80
2022/10/16 10:06:27;;;;;;;2.65;0.63;;;;;;;;;;5021638;28;20032;-80
2022/10/16 10:09:00;;;;;;;8.82;4.38;;;;;;;;;;5021236;28;20029;-80
2022/10/16 10:11:39;;;;;;;2.05;1.13;;;;;;;;;;5015407;28;20480;-74
2022/10/16 10:14:06;;;;;;;2.00;1.00;;;;;;;;;;5012046;28;20574;-75
2022/10/16 10:16:32;;;;;;;8.60;4.57;;;;;;;;;;5013030;28;20034;-76
2022/10/16 10:18:59;;;;;;;4.65;2.08;;;;;;;;;;5009809;28;20506;-75
2022/10/16 10:21:25;;;;;;;3.85;1.58;;;;;;;;;;5011635;28;20034;-75
2022/10/16 10:23:57;;;;;;;1.08;0.90;;;;;;;;;;5013488;28;20033;-78
2022/10/16 10:26:28;;;;;;;2.03;1.42;;;;;;;;;;5013409;28;20045;-78
2022/10/16 10:29:12;;;;;;;10.02;4.53;;;;;;;;;;5013190;28;20018;-77
2022/10/16 10:31:38;;;;;;;7.70;3.72;;;;;;;;;;5013604;28;20041;-76
2022/10/16 10:34:04;;;;;;;1.05;0.95;;;;;;;;;;5012298;28;20088;-77
2022/10/16 10:36:33;;;;;;;5.32;3.10;;;;;;;;;;5013241;28;20522;-77
2022/10/16 10:39:02;;;;;;;2.78;0.77;;;;;;;;;;5013664;28;20026;-77
2022/10/16 10:41:34;;;;;;;6.43;2.60;;;;;;;;;;5013017;28;20022;-77
2022/10/16 10:44:00;;;;;;;3.22;1.33;;;;;;;;;;5013246;28;20037;-75
2022/10/16 10:46:34;;;;;;;2.60;0.98;;;;;;;;;;5013247;28;20022;-76
2022/10/16 10:49:36;;;;;;;0.70;0.50;;;;;;;;;;5013712;28;20030;-74
2022/10/16 10:52:02;;;;;;;;;;;;;;;;;;4959403;28;20031;-77
2022/10/16 10:54:31;;;;;;;4.10;1.00;;;;;;;;;;5003394;28;19928;-77
2022/10/16 10:57:00;;;;;;;3.00;1.08;;;;;;;;;;5012988;28;20025;-76
2022/10/16 10:59:35;;;;;;;17.98;4.15;;;;;;;;;;5013386;28;20484;-76
2022/10/16 11:02:20;;;;;;;2.83;1.02;;;;;;;;;;5000071;28;20103;-76
2022/10/16 11:04:46;;;;;;;2.90;0.63;;;;;;;;;;5013050;28;20105;-76
2022/10/16 11:07:18;;;;;;;3.30;0.47;;;;;;;;;;5013262;28;20550;-75
2022/10/16 11:09:54;;;;;;;15.00;4.20;;;;;;;;;;5015635;28;20018;-76
2022/10/16 11:12:26;;;;;;;0.77;0.57;;;;;;;;;;5018760;28;20477;-77
2022/10/16 11:15:04;;;;;;;0.43;0.43;;;;;;;;;;5018979;28;20101;-75
2022/10/16 11:17:40;;;;;;;5.80;1.73;;;;;;;;;;5019157;28;20030;-75
2022/10/16 11:20:14;;;;;;;2.13;0.93;;;;;;;;;;5022456;28;20036;-75
2022/10/16 11:22:43;;;;;;;2.80;1.23;;;;;;;;;;5015894;28;20060;-77
2022/10/16 11:25:17;;;;;;;2.60;0.85;;;;;;;;;;5013941;28;20022;-76
2022/10/16 11:27:53;;;;;;;14.55;3.95;;;;;;;;;;5014531;28;20097;-76
2022/10/16 11:30:23;;;;;;;5.75;2.83;;;;;;;;;;5012495;28;20014;-76
2022/10/16 11:32:55;;;;;;;1.63;0.95;;;;;;;;;;5012523;28;20037;-76
2022/10/16 11:35:24;;;;;;;3.45;1.02;;;;;;;;;;4998996;28;20033;-77
2022/10/16 11:37:51;;;;;;;2.67;1.15;;;;;;;;;;5012332;28;20053;-76
2022/10/16 11:40:21;;;;;;;2.75;0.47;;;;;;;;;;5012379;28;20021;-77
2022/10/16 11:42:52;;;;;;;1.38;0.20;;;;;;;;;;5012210;28;20033;-76
2022/10/16 11:45:27;;;;;;;0.70;0.52;;;;;;;;;;5012096;28;20021;-76
2022/10/16 11:48:02;;;;;;;5.47;1.15;;;;;;;;;;5012217;28;20029;-77
2022/10/16 11:50:44;;;;;;;2.55;1.02;;;;;;;;;;5000453;28;20440;-77
2022/10/16 11:53:44;;;;;;;4.55;0.90;;;;;;;;;;5011459;28;20108;-75
2022/10/16 11:56:12;;;;;;;1.70;0.75;;;;;;;;;;5012245;28;20026;-78
2022/10/16 11:58:47;;;;;;;1.58;0.60;;;;;;;;;;5010801;28;20033;-78
2022/10/16 12:01:18;;;;;;;3.03;0.60;;;;;;;;;;5017151;28;20026;-80
2022/10/16 12:04:03;;;;;;;1.85;0.40;;;;;;;;;;5018069;28;20014;-82
2022/10/16 12:06:52;;;;;;;0.25;0.20;;;;;;;;;;5020251;28;20030;-83
2022/10/16 12:09:20;;;;;;;0.82;0.50;;;;;;;;;;5021662;28;20028;-82
2022/10/16 12:11:49;;;;;;;1.15;0.88;;;;;;;;;;5019319;28;20032;-80
2022/10/16 12:14:39;;;;;;;1.75;0.50;;;;;;;;;;5018891;28;20038;-82
2022/10/16 12:17:21;;;;;;;0.50;0.50;;;;;;;;;;5003312;28;20060;-82
2022/10/16 12:19:57;;;;;;;0.60;0.43;;;;;;;;;;5015326;28;20058;-82
2022/10/16 12:22:27;;;;;;;2.20;0.50;;;;;;;;;;5021979;28;20392;-82
2022/10/16 12:24:53;;;;;;;0.52;0.35;;;;;;;;;;5017444;28;20061;-82
2022/10/16 12:27:25;;;;;;;0.88;0.50;;;;;;;;;;5016013;28;20427;-82
2022/10/16 12:29:55;;;;;;;0.30;0.30;;;;;;;;;;5015354;28;20132;-83
2022/10/16 12:32:23;;;;;;;2.08;0.20;;;;;;;;;;5017896;28;20476;-83
2022/10/16 12:34:50;;;;;;;0.20;0.20;;;;;;;;;;5017958;28;20042;-83
2022/10/16 12:37:21;;;;;;;1.38;0.32;;;;;;;;;;5016909;28;20120;-82
2022/10/16 12:39:48;;;;;;;2.60;0.40;;;;;;;;;;5017797;28;20032;-84
2022/10/16 12:42:20;;;;;;;1.63;0.68;;;;;;;;;;5018317;28;20105;-82
2022/10/16 12:44:46;;;;;;;1.70;1.05;;;;;;;;;;5017434;28;20104;-81
2022/10/16 12:47:36;;;;;;;0.65;0.40;;;;;;;;;;5021823;28;20026;-83
2022/10/16 12:50:03;;;;;;;1.23;0.60;;;;;;;;;;5025960;28;20022;-83
2022/10/16 12:52:35;;;;;;;1.75;0.50;;;;;;;;;;5024917;28;20025;-83
2022/10/16 12:55:02;;;;;;;0.43;0.43;;;;;;;;;;5025485;28;20101;-83
2022/10/16 12:57:46;;;;;;;0.60;0.40;;;;;;;;;;5019352;28;20033;-83
2022/10/16 13:00:12;;;;;;;0.47;0.28;;;;;;;;;;5020348;28;20037;-81
2022/10/16 13:03:01;;;;;;;1.77;0.68;;;;;;;;;;5020381;28;20030;-84
2022/10/16 13:05:27;;;;;;;1.23;0.63;;;;;;;;;;5017978;28;20038;-83
2022/10/16 13:07:56;;;;;;;1.92;0.50;;;;;;;;;;5020631;28;20018;-83
2022/10/16 13:10:41;;;;;;;1.45;0.40;;;;;;;;;;5007051;28;20047;-84
2022/10/16 13:13:07;;;;;;;1.27;0.80;;;;;;;;;;5020515;28;20061;-83
2022/10/16 13:15:41;;;;;;;0.60;0.60;;;;;;;;;;5018799;28;20034;-83
2022/10/16 13:18:14;;;;;;;0.80;0.55;;;;;;;;;;5019873;28;20026;-82
2022/10/16 13:20:40;;;;;;;0.50;0.40;;;;;;;;;;5020419;28;20110;-82
2022/10/16 13:23:14;;;;;;;0.65;0.43;;;;;;;;;;5020608;28;20022;-83
2022/10/16 13:25:43;;;;;;;0.57;0.50;;;;;;;;;;5018500;28;20033;-83
2022/10/16 13:28:11;;;;;;;0.85;0.45;;;;;;;;;;5019009;28;20021;-81
2022/10/16 13:30:44;;;;;;;2.63;0.60;;;;;;;;;;5018251;28;20424;-82
2022/10/16 13:33:10;;;;;;;0.90;0.73;;;;;;;;;;5018889;28;20370;-81
2022/10/16 13:35:37;;;;;;;1.15;0.80;;;;;;;;;;5018603;28;20049;-83
2022/10/16 13:38:14;;;;;;;1.42;0.52;;;;;;;;;;5018051;28;20054;-83
2022/10/16 13:40:50;;;;;;;2.22;0.70;;;;;;;;;;5020412;28;20060;-83
2022/10/16 13:43:18;;;;;;;0.47;0.47;;;;;;;;;;5018912;28;20030;-83
2022/10/16 13:45:53;;;;;;;1.30;0.68;;;;;;;;;;5017620;28;20044;-82
2022/10/16 13:48:19;;;;;;;0.98;0.65;;;;;;;;;;5017535;28;20042;-83
2022/10/16 13:50:45;;;;;;;1.92;0.50;;;;;;;;;;5016357;28;20433;-83
2022/10/16 13:53:15;;;;;;;1.63;0.50;;;;;;;;;;5032129;28;20045;-84
2022/10/16 13:55:41;;;;;;;2.00;1.00;;;;;;;;;;5038512;28;20041;-83
2022/10/16 13:58:14;;;;;;;1.58;1.00;;;;;;;;;;5038832;28;20017;-83
2022/10/16 14:00:41;;;;;;;2.25;0.80;;;;;;;;;;5033006;28;20410;-84
2022/10/16 14:03:14;;;;;;;0.73;0.73;;;;;;;;;;5024078;28;20022;-83
2022/10/16 14:05:51;;;;;;;3.38;1.02;;;;;;;;;;5023554;28;20574;-83
2022/10/16 14:08:18;;;;;;;2.25;0.57;;;;;;;;;;5022517;28;20090;-82
2022/10/16 14:10:47;;;;;;;4.18;1.10;;;;;;;;;;5024048;28;20026;-83
2022/10/16 14:13:17;;;;;;;2.25;0.70;;;;;;;;;;5027530;28;20054;-82
2022/10/16 14:15:46;;;;;;;3.42;0.85;;;;;;;;;;5025974;28;20029;-82
2022/10/16 14:18:20;;;;;;;1.70;1.05;;;;;;;;;;5029515;28;20032;-82
2022/10/16 14:20:46;;;;;;;4.22;0.90;;;;;;;;;;5028661;28;20033;-82
2022/10/16 14:23:32;;;;;;;1.95;1.00;;;;;;;;;;5022247;28;20496;-80
2022/10/16 14:26:13;;;;;;;1.52;1.00;;;;;;;;;;5021040;28;20488;-83
2022/10/16 14:28:42;;;;;;;2.33;1.08;;;;;;;;;;5019513;28;20519;-81
2022/10/16 14:31:36;;;;;;;3.90;1.10;;;;;;;;;;5019991;28;20026;-82
2022/10/16 14:34:03;;;;;;;1.98;0.77;;;;;;;;;;5017814;28;20046;-82
2022/10/16 14:36:29;;;;;;;2.63;0.88;;;;;;;;;;5019228;28;20038;-82
2022/10/16 14:39:04;;;;;;;1.95;0.85;;;;;;;;;;5020640;28;20037;-82
2022/10/16 14:41:31;;;;;;;1.40;0.88;;;;;;;;;;5021085;28;20606;-84
2022/10/16 14:44:01;;;;;;;3.95;1.02;;;;;;;;;;5020976;28;20077;-83
2022/10/16 14:46:37;;;;;;;3.25;1.30;;;;;;;;;;5021931;28;20025;-82
2022/10/16 14:49:09;;;;;;;3.45;1.33;;;;;;;;;;5020756;28;20041;-82
2022/10/16 14:51:35;;;;;;;5.43;1.20;;;;;;;;;;5020941;28;20026;-83
2022/10/16 14:54:01;;;;;;;1.80;1.10;;;;;;;;;;5025415;28;20118;-82
2022/10/16 14:56:30;;;;;;;2.00;1.38;;;;;;;;;;5031790;28;20040;-82
2022/10/16 14:58:56;;;;;;;1.60;0.88;;;;;;;;;;5030771;28;20030;-82
2022/10/16 15:01:22;;;;;;;1.67;0.90;;;;;;;;;;5028121;28;20041;-81
2022/10/16 15:03:48;;;;;;;1.20;0.82;;;;;;;;;;5032360;28;20014;-82